createdAt,value
2018-01-24T05:00:48.894Z,0
2018-01-24T05:01:14.363Z,0
2018-01-24T05:01:39.842Z,0
2018-01-24T05:02:05.414Z,0
2018-01-24T05:02:30.805Z,0
2018-01-24T05:02:56.328Z,0
2018-01-24T05:03:21.769Z,0
2018-01-24T05:03:47.263Z,0
2018-01-24T05:04:12.759Z,0
2018-01-24T05:04:38.218Z,0
2018-01-24T05:05:03.726Z,0
2018-01-24T05:05:29.291Z,0
2018-01-24T05:05:54.756Z,0
2018-01-24T05:06:20.224Z,0
2018-01-24T05:06:45.704Z,0
2018-01-24T05:07:11.170Z,0
2018-01-24T05:07:36.650Z,0
2018-01-24T05:08:02.164Z,0
2018-01-24T05:08:27.649Z,0
2018-01-24T05:09:51.667Z,0
2018-01-24T05:10:17.155Z,0
2018-01-24T05:10:42.641Z,0
2018-01-24T05:11:08.159Z,0
2018-01-24T05:11:33.677Z,0
2018-01-24T05:11:59.184Z,0
2018-01-24T05:12:24.644Z,0
2018-01-24T05:12:50.155Z,0
2018-01-24T05:14:09.086Z,0
2018-01-24T05:14:34.574Z,0
2018-01-24T05:15:00.054Z,0
2018-01-24T05:16:29.146Z,0
2018-01-24T05:16:54.646Z,0
2018-01-24T05:17:20.172Z,0
2018-01-24T05:17:45.622Z,0
2018-01-24T05:18:11.140Z,0
2018-01-24T05:18:36.613Z,0
2018-01-24T05:19:02.117Z,0
2018-01-24T05:19:27.595Z,0
2018-01-24T05:19:53.086Z,0
2018-01-24T05:20:18.556Z,0
2018-01-24T05:20:44.056Z,0
2018-01-24T05:21:09.509Z,0
2018-01-24T05:21:34.986Z,0
2018-01-24T05:22:00.460Z,0
2018-01-24T05:22:25.946Z,0
2018-01-24T05:22:51.485Z,0
2018-01-24T05:23:16.948Z,0
2018-01-24T05:24:46.429Z,0
2018-01-24T05:25:11.908Z,0
2018-01-24T05:25:37.378Z,0
2018-01-24T05:26:02.823Z,0
2018-01-24T05:26:28.262Z,0
2018-01-24T05:26:53.774Z,0
2018-01-24T05:27:19.362Z,0
2018-01-24T05:27:44.866Z,0
2018-01-24T05:28:10.397Z,0
2018-01-24T05:28:35.914Z,0
2018-01-24T05:29:01.389Z,0
2018-01-24T05:29:26.843Z,0
2018-01-24T05:29:52.363Z,0
2018-01-24T05:30:17.919Z,0
2018-01-24T05:31:46.976Z,0
2018-01-24T05:32:12.460Z,0
2018-01-24T05:32:37.923Z,0
2018-01-24T05:33:03.399Z,0
2018-01-24T05:33:28.881Z,0
2018-01-24T05:33:54.340Z,0
2018-01-24T05:34:19.889Z,0
2018-01-24T05:34:45.296Z,0
2018-01-24T05:35:10.755Z,0
2018-01-24T05:35:36.249Z,0
2018-01-24T05:36:01.714Z,0
2018-01-24T05:36:27.176Z,0
2018-01-24T05:36:52.697Z,0
2018-01-24T05:37:18.150Z,0
2018-01-24T05:37:43.622Z,0
2018-01-24T05:38:09.132Z,0
2018-01-24T05:38:34.623Z,0
2018-01-24T05:39:00.229Z,0
2018-01-24T05:39:25.757Z,0
2018-01-24T05:39:51.196Z,0
2018-01-24T05:40:16.682Z,0
2018-01-24T05:40:42.358Z,0
2018-01-24T05:42:01.254Z,0
2018-01-24T05:42:26.717Z,0
2018-01-24T05:42:52.297Z,0
2018-01-24T05:43:17.765Z,0
2018-01-24T05:43:43.223Z,0
2018-01-24T05:44:08.726Z,0
2018-01-24T05:44:34.208Z,0
2018-01-24T05:44:59.705Z,0
2018-01-24T05:45:25.177Z,0
2018-01-24T05:45:50.655Z,0
2018-01-24T05:46:16.139Z,0
2018-01-24T05:46:41.611Z,0
2018-01-24T05:48:10.689Z,0
2018-01-24T05:48:36.182Z,0
2018-01-24T05:49:01.682Z,0
2018-01-24T05:50:25.767Z,0
2018-01-24T05:50:51.246Z,0
2018-01-24T05:51:16.750Z,0
2018-01-24T05:51:42.269Z,0
2018-01-24T05:52:07.759Z,0
2018-01-24T05:52:33.247Z,0
2018-01-24T05:52:58.709Z,0
2018-01-24T05:53:24.200Z,0
2018-01-24T05:53:49.689Z,0
2018-01-24T05:54:15.130Z,0
2018-01-24T05:55:23.813Z,0
2018-01-24T05:55:49.355Z,0
2018-01-24T05:56:14.815Z,0
2018-01-24T05:57:38.818Z,0
2018-01-24T05:58:04.303Z,0
2018-01-24T05:58:29.788Z,0
2018-01-24T05:58:55.285Z,0
2018-01-24T06:00:24.400Z,0
2018-01-24T06:00:49.807Z,0
2018-01-24T06:01:15.295Z,0
2018-01-24T06:01:40.926Z,0
2018-01-24T06:02:06.239Z,0
2018-01-24T06:02:31.727Z,0
2018-01-24T06:02:57.343Z,0
2018-01-24T06:03:22.812Z,0
2018-01-24T06:03:48.346Z,0
2018-01-24T06:04:13.775Z,0
2018-01-24T06:04:39.274Z,0
2018-01-24T06:05:04.856Z,0
2018-01-24T06:05:30.257Z,0
2018-01-24T06:05:55.757Z,0
2018-01-24T06:06:21.252Z,0
2018-01-24T06:06:46.751Z,0
2018-01-24T06:07:12.233Z,0
2018-01-24T06:07:37.682Z,0
2018-01-24T06:08:03.193Z,0
2018-01-24T06:08:28.697Z,0
2018-01-24T06:09:37.393Z,0
2018-01-24T06:10:02.893Z,0
2018-01-24T06:10:28.349Z,0
2018-01-24T06:10:53.803Z,0
2018-01-24T06:11:19.326Z,0
2018-01-24T06:11:44.799Z,0
2018-01-24T06:12:10.286Z,0
2018-01-24T06:12:35.748Z,0
2018-01-24T06:13:01.265Z,0
2018-01-24T06:13:26.789Z,0
2018-01-24T06:13:52.286Z,0
2018-01-24T06:15:11.239Z,0
2018-01-24T06:15:36.716Z,0
2018-01-24T06:16:02.213Z,0
2018-01-24T06:16:27.738Z,0
2018-01-24T06:16:53.230Z,0
2018-01-24T06:18:17.221Z,0
2018-01-24T06:18:42.696Z,0
2018-01-24T06:19:08.195Z,0
2018-01-24T06:19:33.686Z,0
2018-01-24T06:21:02.801Z,0
2018-01-24T06:21:28.283Z,0
2018-01-24T06:22:47.251Z,0
2018-01-24T06:23:12.747Z,0
2018-01-24T06:23:38.229Z,0
2018-01-24T06:24:03.746Z,0
2018-01-24T06:25:32.891Z,0
2018-01-24T06:25:58.378Z,0
2018-01-24T06:26:23.839Z,0
2018-01-24T06:26:49.369Z,0
2018-01-24T06:27:14.806Z,0
2018-01-24T06:27:40.307Z,0
2018-01-24T06:28:05.845Z,0
2018-01-24T06:28:31.329Z,0
2018-01-24T06:29:50.401Z,0
2018-01-24T06:30:15.869Z,0
2018-01-24T06:30:41.544Z,0
2018-01-24T06:31:07.321Z,0
2018-01-24T06:31:33.061Z,0
2018-01-24T06:31:58.681Z,0
2018-01-24T06:32:24.195Z,0
2018-01-24T06:32:49.648Z,0
2018-01-24T06:33:15.180Z,0
2018-01-24T06:33:40.651Z,0
2018-01-24T06:34:06.145Z,0
2018-01-24T06:34:31.625Z,0
2018-01-24T06:34:57.136Z,0
2018-01-24T06:35:22.665Z,0
2018-01-24T06:35:48.080Z,0
2018-01-24T06:36:13.608Z,0
2018-01-24T06:36:39.050Z,0
2018-01-24T06:37:04.515Z,0
2018-01-24T06:37:30.028Z,0
2018-01-24T06:37:55.520Z,0
2018-01-24T06:38:21.028Z,0
2018-01-24T06:39:50.134Z,0
2018-01-24T06:40:15.626Z,0
2018-01-24T06:40:41.102Z,0
2018-01-24T06:41:06.597Z,0
2018-01-24T06:41:32.095Z,0
2018-01-24T06:41:57.578Z,0
2018-01-24T06:43:16.476Z,0
2018-01-24T06:43:41.978Z,0
2018-01-24T06:44:07.477Z,0
2018-01-24T06:44:32.978Z,0
2018-01-24T06:44:58.507Z,0
2018-01-24T06:45:24.006Z,0
2018-01-24T06:45:49.503Z,0
2018-01-24T06:46:14.986Z,0
2018-01-24T06:46:40.467Z,0
2018-01-24T06:47:54.283Z,0
2018-01-24T06:48:19.792Z,0
2018-01-24T06:48:45.254Z,0
2018-01-24T06:49:10.759Z,0
2018-01-24T06:49:36.243Z,0
2018-01-24T06:50:01.756Z,0
2018-01-24T06:50:27.283Z,0
2018-01-24T06:50:52.782Z,0
2018-01-24T06:52:11.753Z,0
2018-01-24T06:52:37.259Z,0
2018-01-24T06:53:02.806Z,0
2018-01-24T06:53:28.302Z,0
2018-01-24T06:53:53.835Z,0
2018-01-24T06:54:19.280Z,0
2018-01-24T06:54:44.799Z,0
2018-01-24T06:55:10.309Z,0
2018-01-24T06:55:35.806Z,0
2018-01-24T06:56:01.290Z,0
2018-01-24T06:56:26.771Z,0
2018-01-24T06:56:52.285Z,0
2018-01-24T06:57:17.794Z,0
2018-01-24T06:57:43.309Z,0
2018-01-24T06:58:57.130Z,0
2018-01-24T06:59:22.633Z,0
2018-01-24T06:59:48.185Z,0
2018-01-24T07:00:13.617Z,0
2018-01-24T07:00:39.072Z,0
2018-01-24T07:01:04.576Z,0
2018-01-24T07:01:30.098Z,0
2018-01-24T07:01:55.609Z,0
2018-01-24T07:02:21.101Z,0
2018-01-24T07:02:46.586Z,0
2018-01-24T07:03:12.122Z,0
2018-01-24T07:03:37.624Z,0
2018-01-24T07:04:03.133Z,0
2018-01-24T07:04:28.597Z,0
2018-01-24T07:04:54.103Z,0
2018-01-24T07:05:19.573Z,0
2018-01-24T07:05:45.074Z,0
2018-01-24T07:06:10.599Z,0
2018-01-24T07:06:36.070Z,0
2018-01-24T07:07:01.566Z,0
2018-01-24T07:07:27.065Z,0
2018-01-24T07:07:52.577Z,0
2018-01-24T07:08:18.087Z,0
2018-01-24T07:08:43.525Z,0
2018-01-24T07:09:09.012Z,0
2018-01-24T07:09:34.486Z,0
2018-01-24T07:09:59.975Z,0
2018-01-24T07:11:08.676Z,0
2018-01-24T07:11:34.190Z,0
2018-01-24T07:11:59.682Z,0
2018-01-24T07:12:25.165Z,0
2018-01-24T07:13:44.047Z,0
2018-01-24T07:14:09.525Z,0
2018-01-24T07:14:35.011Z,0
2018-01-24T07:15:00.530Z,0
2018-01-24T07:15:26.026Z,0
2018-01-24T07:15:51.496Z,0
2018-01-24T07:16:17.008Z,0
2018-01-24T07:16:42.485Z,0
2018-01-24T07:17:07.946Z,0
2018-01-24T07:17:33.429Z,0
2018-01-24T07:17:58.896Z,0
2018-01-24T07:18:24.393Z,0
2018-01-24T07:19:43.333Z,0
2018-01-24T07:20:08.830Z,0
2018-01-24T07:21:38.038Z,0
2018-01-24T07:22:03.532Z,0
2018-01-24T07:22:29.011Z,0
2018-01-24T07:22:54.527Z,0
2018-01-24T07:23:20.016Z,0
2018-01-24T07:23:45.505Z,0
2018-01-24T07:24:10.988Z,0
2018-01-24T07:25:19.718Z,0
2018-01-24T07:25:45.216Z,0
2018-01-24T07:26:10.724Z,0
2018-01-24T07:26:36.220Z,0
2018-01-24T07:27:01.732Z,0
2018-01-24T07:27:27.232Z,0
2018-01-24T07:28:46.134Z,0
2018-01-24T07:29:11.679Z,0
2018-01-24T07:30:20.427Z,5
2018-01-24T07:30:45.858Z,5
2018-01-24T07:31:11.372Z,5
2018-01-24T07:31:36.898Z,5
2018-01-24T07:32:02.394Z,5
2018-01-24T07:32:27.837Z,0
2018-01-24T07:32:53.331Z,0
2018-01-24T07:33:18.818Z,5
2018-01-24T07:33:44.283Z,5
2018-01-24T07:34:09.777Z,5
2018-01-24T07:34:35.267Z,5
2018-01-24T07:35:00.752Z,5
2018-01-24T07:35:26.280Z,5
2018-01-24T07:35:51.810Z,5
2018-01-24T07:36:17.279Z,5
2018-01-24T07:36:42.750Z,5
2018-01-24T07:37:08.234Z,5
2018-01-24T07:37:33.715Z,5
2018-01-24T07:37:59.225Z,5
2018-01-24T07:38:24.675Z,5
2018-01-24T07:39:53.876Z,5
2018-01-24T07:40:19.384Z,5
2018-01-24T07:40:44.962Z,5
2018-01-24T07:41:10.435Z,5
2018-01-24T07:41:35.887Z,5
2018-01-24T07:42:01.428Z,5
2018-01-24T07:42:26.945Z,5
2018-01-24T07:42:52.485Z,5
2018-01-24T07:43:17.952Z,5
2018-01-24T07:43:43.460Z,5
2018-01-24T07:44:09.039Z,5
2018-01-24T07:44:34.481Z,10
2018-01-24T07:45:00.069Z,10
2018-01-24T07:45:25.546Z,10
2018-01-24T07:45:50.994Z,10
2018-01-24T07:46:16.521Z,10
2018-01-24T07:46:42.064Z,10
2018-01-24T07:47:07.512Z,10
2018-01-24T07:47:33.009Z,10
2018-01-24T07:47:58.497Z,15
2018-01-24T07:48:24.094Z,15
2018-01-24T07:48:49.601Z,10
2018-01-24T07:49:15.161Z,15
2018-01-24T07:49:40.598Z,15
2018-01-24T07:50:06.094Z,15
2018-01-24T07:50:31.631Z,10
2018-01-24T07:50:57.104Z,15
2018-01-24T07:52:05.773Z,15
2018-01-24T07:52:31.298Z,15
2018-01-24T07:52:56.765Z,20
2018-01-24T07:53:22.251Z,20
2018-01-24T07:54:41.177Z,15
2018-01-24T07:55:06.675Z,15
2018-01-24T07:55:32.178Z,15
2018-01-24T07:55:57.682Z,15
2018-01-24T07:56:23.167Z,15
2018-01-24T07:56:48.647Z,15
2018-01-24T07:57:14.153Z,10
2018-01-24T07:57:39.686Z,10
2018-01-24T07:58:05.163Z,10
2018-01-24T07:58:30.675Z,15
2018-01-24T07:58:56.160Z,15
2018-01-24T07:59:21.668Z,10
2018-01-24T07:59:47.171Z,15
2018-01-24T08:00:12.667Z,15
2018-01-24T08:00:38.162Z,15
2018-01-24T08:01:46.922Z,15
2018-01-24T08:02:12.455Z,15
2018-01-24T08:02:37.928Z,15
2018-01-24T08:03:03.456Z,15
2018-01-24T08:03:28.983Z,15
2018-01-24T08:03:54.429Z,20
2018-01-24T08:04:19.939Z,20
2018-01-24T08:04:45.487Z,20
2018-01-24T08:05:10.975Z,20
2018-01-24T08:05:36.505Z,20
2018-01-24T08:06:02.010Z,25
2018-01-24T08:06:27.468Z,25
2018-01-24T08:06:52.946Z,25
2018-01-24T08:07:18.436Z,20
2018-01-24T08:07:43.930Z,20
2018-01-24T08:08:09.436Z,25
2018-01-24T08:08:35.013Z,25
2018-01-24T08:09:00.486Z,25
2018-01-24T08:09:25.983Z,25
2018-01-24T08:09:51.491Z,25
2018-01-24T08:10:16.976Z,20
2018-01-24T08:10:42.408Z,25
2018-01-24T08:11:07.880Z,25
2018-01-24T08:11:33.368Z,20
2018-01-24T08:11:58.874Z,25
2018-01-24T08:12:24.428Z,25
2018-01-24T08:12:49.955Z,25
2018-01-24T08:13:15.440Z,25
2018-01-24T08:13:40.904Z,20
2018-01-24T08:14:06.343Z,30
2018-01-24T08:14:31.820Z,35
2018-01-24T08:14:57.266Z,35
2018-01-24T08:15:22.775Z,30
2018-01-24T08:15:48.244Z,30
2018-01-24T08:16:13.768Z,30
2018-01-24T08:16:39.277Z,35
2018-01-24T08:17:04.762Z,30
2018-01-24T08:18:19.541Z,35
2018-01-24T08:18:45.039Z,40
2018-01-24T08:19:10.546Z,35
2018-01-24T08:19:36.049Z,35
2018-01-24T08:20:55.007Z,30
2018-01-24T08:21:20.494Z,30
2018-01-24T08:21:45.997Z,40
2018-01-24T08:22:11.512Z,40
2018-01-24T08:22:36.970Z,35
2018-01-24T08:23:02.447Z,35
2018-01-24T08:23:27.944Z,30
2018-01-24T08:23:53.439Z,30
2018-01-24T08:24:18.917Z,30
2018-01-24T08:24:44.415Z,35
2018-01-24T08:25:09.891Z,35
2018-01-24T08:25:35.465Z,40
2018-01-24T08:26:00.909Z,35
2018-01-24T08:26:26.408Z,35
2018-01-24T08:27:56.721Z,40
2018-01-24T08:28:22.194Z,45
2018-01-24T08:29:36.004Z,50
2018-01-24T08:30:01.472Z,40
2018-01-24T08:30:27.190Z,40
2018-01-24T08:30:52.655Z,45
2018-01-24T08:31:18.153Z,50
2018-01-24T08:32:42.165Z,60
2018-01-24T08:33:07.650Z,60
2018-01-24T08:33:33.122Z,60
2018-01-24T08:33:58.635Z,60
2018-01-24T08:34:24.134Z,60
2018-01-24T08:34:49.600Z,60
2018-01-24T08:35:15.060Z,60
2018-01-24T08:35:40.530Z,60
2018-01-24T08:36:06.015Z,60
2018-01-24T08:36:31.504Z,55
2018-01-24T08:36:56.995Z,55
2018-01-24T08:37:22.512Z,55
2018-01-24T08:37:47.984Z,50
2018-01-24T08:38:13.447Z,50
2018-01-24T08:38:38.969Z,55
2018-01-24T08:39:04.424Z,55
2018-01-24T08:40:28.398Z,30
2018-01-24T08:40:53.904Z,35
2018-01-24T08:41:19.386Z,45
2018-01-24T08:41:44.883Z,45
2018-01-24T08:42:10.421Z,40
2018-01-24T08:42:35.913Z,40
2018-01-24T08:43:01.445Z,45
2018-01-24T08:43:26.953Z,45
2018-01-24T08:43:52.482Z,40
2018-01-24T08:44:17.968Z,35
2018-01-24T08:44:43.455Z,40
2018-01-24T08:45:08.951Z,45
2018-01-24T08:45:34.464Z,35
2018-01-24T08:46:00.011Z,30
2018-01-24T08:46:25.448Z,30
2018-01-24T08:46:51.010Z,30
2018-01-24T08:47:16.477Z,35
2018-01-24T08:47:41.982Z,40
2018-01-24T08:48:07.494Z,35
2018-01-24T08:48:33.005Z,30
2018-01-24T08:48:58.466Z,30
2018-01-24T08:49:24.006Z,30
2018-01-24T08:50:53.062Z,65
2018-01-24T08:51:18.553Z,70
2018-01-24T08:51:44.050Z,70
2018-01-24T08:52:09.602Z,70
2018-01-24T08:52:35.033Z,75
2018-01-24T08:53:00.533Z,75
2018-01-24T08:53:26.000Z,75
2018-01-24T08:53:51.504Z,80
2018-01-24T08:54:17.002Z,85
2018-01-24T08:54:42.513Z,85
2018-01-24T08:55:08.032Z,90
2018-01-24T08:56:16.727Z,95
2018-01-24T08:56:42.231Z,95
2018-01-24T08:57:07.736Z,95
2018-01-24T08:57:33.244Z,95
2018-01-24T08:57:58.736Z,95
2018-01-24T08:58:24.220Z,95
2018-01-24T08:58:49.689Z,95
2018-01-24T08:59:15.158Z,105
2018-01-24T08:59:40.630Z,110
2018-01-24T09:00:06.134Z,105
2018-01-24T09:00:31.626Z,105
2018-01-24T09:00:57.159Z,105
2018-01-24T09:01:22.635Z,105
2018-01-24T09:01:48.364Z,115
2018-01-24T09:02:13.896Z,120
2018-01-24T09:02:39.366Z,120
2018-01-24T09:03:04.853Z,120
2018-01-24T09:03:30.353Z,120
2018-01-24T09:03:55.822Z,115
2018-01-24T09:04:21.314Z,120
2018-01-24T09:04:46.807Z,120
2018-01-24T09:06:05.724Z,125
2018-01-24T09:06:31.195Z,125
2018-01-24T09:07:40.010Z,120
2018-01-24T09:08:05.502Z,115
2018-01-24T09:08:31.004Z,115
2018-01-24T09:08:56.472Z,120
2018-01-24T09:09:21.933Z,125
2018-01-24T09:09:47.470Z,120
2018-01-24T09:10:12.930Z,125
2018-01-24T09:10:38.465Z,125
2018-01-24T09:11:03.976Z,125
2018-01-24T09:11:29.455Z,120
2018-01-24T09:11:54.938Z,115
2018-01-24T09:12:20.453Z,110
2018-01-24T09:12:45.908Z,110
2018-01-24T09:13:11.384Z,110
2018-01-24T09:13:36.899Z,110
2018-01-24T09:14:02.370Z,110
2018-01-24T09:14:27.812Z,110
2018-01-24T09:14:53.311Z,105
2018-01-24T09:15:18.786Z,105
2018-01-24T09:15:44.272Z,105
2018-01-24T09:16:09.771Z,105
2018-01-24T09:17:28.709Z,115
2018-01-24T09:17:54.204Z,120
2018-01-24T09:19:07.955Z,125
2018-01-24T09:19:33.457Z,125
2018-01-24T09:19:58.956Z,125
2018-01-24T09:20:24.439Z,125
2018-01-24T09:20:49.945Z,120
2018-01-24T09:21:15.424Z,120
2018-01-24T09:21:40.920Z,120
2018-01-24T09:22:06.408Z,115
2018-01-24T09:22:31.919Z,115
2018-01-24T09:22:57.417Z,110
2018-01-24T09:23:22.967Z,105
2018-01-24T09:23:48.468Z,105
2018-01-24T09:24:13.948Z,105
2018-01-24T09:24:39.424Z,105
2018-01-24T09:25:04.913Z,105
2018-01-24T09:25:30.401Z,105
2018-01-24T09:25:55.884Z,105
2018-01-24T09:26:21.392Z,100
2018-01-24T09:26:46.829Z,100
2018-01-24T09:27:12.316Z,105
2018-01-24T09:27:37.804Z,105
2018-01-24T09:28:03.308Z,105
2018-01-24T09:28:28.803Z,105
2018-01-24T09:28:54.290Z,105
2018-01-24T09:30:13.229Z,110
2018-01-24T09:30:38.727Z,115
2018-01-24T09:31:04.206Z,120
2018-01-24T09:31:29.712Z,120
2018-01-24T09:31:55.219Z,110
2018-01-24T09:32:20.946Z,105
2018-01-24T09:32:46.149Z,105
2018-01-24T09:33:11.846Z,110
2018-01-24T09:33:37.320Z,115
2018-01-24T09:34:02.853Z,120
2018-01-24T09:34:28.336Z,130
2018-01-24T09:34:53.819Z,135
2018-01-24T09:35:19.310Z,140
2018-01-24T09:35:44.798Z,145
2018-01-24T09:36:10.279Z,145
2018-01-24T09:36:35.733Z,145
2018-01-24T09:37:49.531Z,130
2018-01-24T09:38:15.020Z,120
2018-01-24T09:38:40.498Z,105
2018-01-24T09:39:06.029Z,115
2018-01-24T09:39:31.533Z,120
2018-01-24T09:39:57.000Z,115
2018-01-24T09:40:22.494Z,95
2018-01-24T09:40:47.992Z,95
2018-01-24T09:42:06.884Z,120
2018-01-24T09:43:30.876Z,115
2018-01-24T09:43:56.389Z,110
2018-01-24T09:44:21.883Z,90
2018-01-24T09:44:47.363Z,75
2018-01-24T09:45:12.844Z,70
2018-01-24T09:45:38.339Z,65
2018-01-24T09:46:03.804Z,60
2018-01-24T09:47:22.759Z,90
2018-01-24T09:47:48.191Z,105
2018-01-24T09:48:13.669Z,105
2018-01-24T09:48:39.181Z,95
2018-01-24T09:49:04.649Z,80
2018-01-24T09:49:30.121Z,70
2018-01-24T09:49:55.625Z,80
2018-01-24T09:50:21.125Z,70
2018-01-24T09:51:50.196Z,75
2018-01-24T09:52:15.684Z,80
2018-01-24T09:52:41.155Z,85
2018-01-24T09:53:06.642Z,95
2018-01-24T09:53:32.113Z,105
2018-01-24T09:53:57.576Z,85
2018-01-24T09:54:23.056Z,65
2018-01-24T09:54:48.552Z,70
2018-01-24T09:55:14.117Z,80
2018-01-24T09:55:39.562Z,90
2018-01-24T09:56:05.039Z,80
2018-01-24T09:56:30.488Z,75
2018-01-24T09:56:55.973Z,90
2018-01-24T09:57:21.444Z,90
2018-01-24T09:57:46.929Z,75
2018-01-24T09:58:12.418Z,75
2018-01-24T09:58:37.921Z,90
2018-01-24T09:59:03.416Z,95
2018-01-24T09:59:28.939Z,115
2018-01-24T09:59:54.390Z,130
2018-01-24T10:00:19.925Z,135
2018-01-24T10:00:45.413Z,120
2018-01-24T10:01:10.864Z,120
2018-01-24T10:01:36.362Z,125
2018-01-24T10:02:01.836Z,125
2018-01-24T10:02:27.294Z,125
2018-01-24T10:02:52.855Z,110
2018-01-24T10:03:18.307Z,90
2018-01-24T10:04:47.388Z,115
2018-01-24T10:05:12.875Z,120
2018-01-24T10:05:38.370Z,125
2018-01-24T10:07:07.456Z,90
2018-01-24T10:07:32.947Z,90
2018-01-24T10:07:58.446Z,80
2018-01-24T10:08:23.926Z,95
2018-01-24T10:08:49.360Z,105
2018-01-24T10:09:14.923Z,120
2018-01-24T10:09:40.438Z,140
2018-01-24T10:10:05.901Z,150
2018-01-24T10:10:31.368Z,145
2018-01-24T10:11:50.300Z,135
2018-01-24T10:12:15.791Z,125
2018-01-24T10:12:41.283Z,120
2018-01-24T10:13:06.756Z,125
2018-01-24T10:13:32.236Z,130
2018-01-24T10:13:57.769Z,145
2018-01-24T10:14:23.171Z,155
2018-01-24T10:14:48.660Z,155
2018-01-24T10:15:14.119Z,150
2018-01-24T10:15:39.614Z,150
2018-01-24T10:16:05.129Z,150
2018-01-24T10:16:30.636Z,150
2018-01-24T10:16:56.045Z,150
2018-01-24T10:17:21.535Z,150
2018-01-24T10:17:47.025Z,150
2018-01-24T10:18:12.497Z,160
2018-01-24T10:18:38.009Z,165
2018-01-24T10:19:03.486Z,170
2018-01-24T10:20:32.629Z,165
2018-01-24T10:20:58.131Z,160
2018-01-24T10:21:23.597Z,150
2018-01-24T10:21:49.103Z,140
2018-01-24T10:22:14.565Z,135
2018-01-24T10:22:40.055Z,135
2018-01-24T10:23:05.566Z,135
2018-01-24T10:23:31.037Z,145
2018-01-24T10:23:56.533Z,145
2018-01-24T10:24:22.004Z,150
2018-01-24T10:24:47.468Z,155
2018-01-24T10:25:12.954Z,150
2018-01-24T10:25:38.450Z,130
2018-01-24T10:26:03.945Z,120
2018-01-24T10:26:29.439Z,115
2018-01-24T10:26:54.904Z,120
2018-01-24T10:27:20.384Z,125
2018-01-24T10:27:45.888Z,115
2018-01-24T10:28:11.414Z,105
2018-01-24T10:28:36.876Z,100
2018-01-24T10:29:02.408Z,90
2018-01-24T10:29:27.926Z,110
2018-01-24T10:29:53.439Z,115
2018-01-24T10:30:18.947Z,125
2018-01-24T10:30:44.470Z,125
2018-01-24T10:31:10.020Z,120
2018-01-24T10:31:35.506Z,125
2018-01-24T10:32:01.018Z,130
2018-01-24T10:32:26.555Z,140
2018-01-24T10:32:52.025Z,145
2018-01-24T10:33:17.528Z,155
2018-01-24T10:33:43.038Z,160
2018-01-24T10:34:08.566Z,160
2018-01-24T10:34:34.060Z,155
2018-01-24T10:36:46.529Z,150
2018-01-24T10:37:12.013Z,155
2018-01-24T10:37:37.491Z,155
2018-01-24T10:38:02.975Z,155
2018-01-24T10:38:28.479Z,160
2018-01-24T10:38:53.948Z,165
2018-01-24T10:39:19.413Z,170
2018-01-24T10:39:44.920Z,170
2018-01-24T10:41:14.003Z,165
2018-01-24T10:41:39.500Z,155
2018-01-24T10:42:04.993Z,150
2018-01-24T10:42:30.494Z,150
2018-01-24T10:42:55.978Z,150
2018-01-24T10:43:21.589Z,155
2018-01-24T10:43:47.041Z,165
2018-01-24T10:44:12.523Z,165
2018-01-24T10:44:38.008Z,165
2018-01-24T10:45:03.473Z,165
2018-01-24T10:45:28.955Z,160
2018-01-24T10:45:54.413Z,160
2018-01-24T10:46:19.919Z,165
2018-01-24T10:46:45.406Z,160
2018-01-24T10:47:10.895Z,160
2018-01-24T10:47:36.472Z,160
2018-01-24T10:48:01.936Z,155
2018-01-24T10:48:27.411Z,155
2018-01-24T10:48:52.908Z,155
2018-01-24T10:50:11.824Z,160
2018-01-24T10:50:37.296Z,165
2018-01-24T10:51:02.800Z,170
2018-01-24T10:51:28.272Z,170
2018-01-24T10:51:53.764Z,170
2018-01-24T10:52:19.298Z,165
2018-01-24T10:52:44.783Z,165
2018-01-24T10:53:10.306Z,165
2018-01-24T10:53:35.819Z,165
2018-01-24T10:54:01.303Z,165
2018-01-24T10:54:26.802Z,170
2018-01-24T10:54:52.264Z,175
2018-01-24T10:55:17.758Z,180
2018-01-24T10:55:43.255Z,185
2018-01-24T10:56:08.761Z,185
2018-01-24T10:56:34.234Z,190
2018-01-24T10:56:59.721Z,190
2018-01-24T10:57:25.199Z,190
2018-01-24T10:57:50.718Z,195
2018-01-24T10:58:16.280Z,195
2018-01-24T10:58:41.731Z,205
2018-01-24T10:59:07.233Z,205
2018-01-24T10:59:32.688Z,200
2018-01-24T10:59:58.198Z,205
2018-01-24T11:01:12.006Z,210
2018-01-24T11:01:37.488Z,210
2018-01-24T11:02:02.991Z,210
2018-01-24T11:02:28.471Z,205
2018-01-24T11:02:53.990Z,205
2018-01-24T11:03:19.457Z,200
2018-01-24T11:03:44.951Z,200
2018-01-24T11:04:10.462Z,200
2018-01-24T11:04:35.972Z,200
2018-01-24T11:05:01.438Z,200
2018-01-24T11:05:26.941Z,200
2018-01-24T11:05:52.403Z,195
2018-01-24T11:06:17.916Z,195
2018-01-24T11:06:43.368Z,195
2018-01-24T11:07:08.887Z,200
2018-01-24T11:07:34.428Z,195
2018-01-24T11:07:59.877Z,190
2018-01-24T11:08:25.404Z,175
2018-01-24T11:09:49.419Z,145
2018-01-24T11:10:14.950Z,125
2018-01-24T11:11:38.910Z,80
2018-01-24T11:12:04.393Z,105
2018-01-24T11:12:29.864Z,125
2018-01-24T11:12:55.365Z,145
2018-01-24T11:13:20.843Z,155
2018-01-24T11:13:46.358Z,160
2018-01-24T11:14:11.840Z,165
2018-01-24T11:14:37.353Z,170
2018-01-24T11:15:02.911Z,175
2018-01-24T11:15:28.383Z,170
2018-01-24T11:15:53.927Z,165
2018-01-24T11:17:07.735Z,165
2018-01-24T11:17:33.228Z,165
2018-01-24T11:19:03.407Z,170
2018-01-24T11:19:28.888Z,170
2018-01-24T11:19:54.479Z,170
2018-01-24T11:20:20.004Z,170
2018-01-24T11:20:45.455Z,170
2018-01-24T11:21:10.946Z,170
2018-01-24T11:21:36.462Z,170
2018-01-24T11:22:01.961Z,170
2018-01-24T11:22:27.466Z,170
2018-01-24T11:22:52.950Z,165
2018-01-24T11:24:16.935Z,170
2018-01-24T11:24:42.415Z,170
2018-01-24T11:25:07.921Z,170
2018-01-24T11:25:33.438Z,170
2018-01-24T11:25:58.980Z,170
2018-01-24T11:26:24.563Z,170
2018-01-24T11:26:50.063Z,170
2018-01-24T11:27:15.503Z,170
2018-01-24T11:27:41.020Z,170
2018-01-24T11:28:06.479Z,165
2018-01-24T11:28:32.006Z,165
2018-01-24T11:28:57.465Z,165
2018-01-24T11:29:23.042Z,165
2018-01-24T11:29:48.457Z,165
2018-01-24T11:30:13.987Z,165
2018-01-24T11:30:39.511Z,165
2018-01-24T11:31:04.967Z,160
2018-01-24T11:31:30.450Z,160
2018-01-24T11:31:56.033Z,160
2018-01-24T11:32:21.506Z,160
2018-01-24T11:32:46.980Z,160
2018-01-24T11:33:12.457Z,160
2018-01-24T11:33:37.958Z,160
2018-01-24T11:34:03.480Z,160
2018-01-24T11:34:28.997Z,165
2018-01-24T11:34:54.447Z,165
2018-01-24T11:35:19.965Z,165
2018-01-24T11:35:45.446Z,170
2018-01-24T11:36:10.919Z,170
2018-01-24T11:36:36.424Z,165
2018-01-24T11:37:01.959Z,165
2018-01-24T11:37:27.417Z,165
2018-01-24T11:37:52.876Z,160
2018-01-24T11:38:18.416Z,160
2018-01-24T11:38:43.900Z,160
2018-01-24T11:39:09.397Z,165
2018-01-24T11:39:34.895Z,165
2018-01-24T11:40:00.395Z,165
2018-01-24T11:40:25.886Z,170
2018-01-24T11:40:51.423Z,170
2018-01-24T11:41:16.905Z,165
2018-01-24T11:41:42.385Z,165
2018-01-24T11:42:07.908Z,165
2018-01-24T11:42:33.399Z,155
2018-01-24T11:42:58.890Z,150
2018-01-24T11:43:24.431Z,155
2018-01-24T11:43:49.869Z,145
2018-01-24T11:44:15.337Z,145
2018-01-24T11:44:40.829Z,140
2018-01-24T11:45:06.302Z,130
2018-01-24T11:45:31.769Z,140
2018-01-24T11:45:57.292Z,140
2018-01-24T11:46:22.804Z,135
2018-01-24T11:46:48.346Z,130
2018-01-24T11:47:13.861Z,125
2018-01-24T11:47:39.327Z,130
2018-01-24T11:48:04.811Z,140
2018-01-24T11:48:30.341Z,145
2018-01-24T11:48:55.820Z,145
2018-01-24T11:49:21.315Z,145
2018-01-24T11:49:46.867Z,145
2018-01-24T11:50:12.372Z,145
2018-01-24T11:50:37.854Z,145
2018-01-24T11:51:03.441Z,150
2018-01-24T11:51:28.916Z,145
2018-01-24T11:51:54.410Z,145
2018-01-24T11:52:19.899Z,130
2018-01-24T11:52:45.389Z,120
2018-01-24T11:53:10.996Z,120
2018-01-24T11:53:36.497Z,125
2018-01-24T11:54:02.057Z,115
2018-01-24T11:54:27.522Z,125
2018-01-24T11:54:53.036Z,135
2018-01-24T11:55:18.609Z,145
2018-01-24T11:55:44.062Z,145
2018-01-24T11:56:09.682Z,145
2018-01-24T11:56:35.139Z,140
2018-01-24T11:57:59.203Z,105
2018-01-24T11:58:24.701Z,100
2018-01-24T11:58:50.189Z,100
2018-01-24T11:59:15.695Z,100
2018-01-24T11:59:41.168Z,90
2018-01-24T12:00:06.638Z,85
2018-01-24T12:00:32.149Z,90
2018-01-24T12:00:57.667Z,100
2018-01-24T12:01:23.209Z,105
2018-01-24T12:01:48.692Z,100
2018-01-24T12:02:14.159Z,110
2018-01-24T12:02:39.695Z,120
2018-01-24T12:03:05.167Z,130
2018-01-24T12:03:30.651Z,120
2018-01-24T12:03:56.171Z,130
2018-01-24T12:04:21.663Z,135
2018-01-24T12:04:47.165Z,140
2018-01-24T12:05:12.711Z,135